sensor_id;sensor_type;location;lat;lon;timestamp;temperature;humidity
15777;DHT22;7989;51.198;6.676;2022-07-09T00:00:12;18.50;99.90
15777;DHT22;7989;51.198;6.676;2022-07-09T00:02:39;18.40;99.90
15777;DHT22;7989;51.198;6.676;2022-07-09T00:05:06;18.40;99.90
15777;DHT22;7989;51.198;6.676;2022-07-09T00:07:33;18.40;99.90
15777;DHT22;7989;51.198;6.676;2022-07-09T00:10:00;18.40;99.90
15777;DHT22;7989;51.198;6.676;2022-07-09T00:12:27;18.30;99.90
15777;DHT22;7989;51.198;6.676;2022-07-09T00:14:54;18.30;99.90
15777;DHT22;7989;51.198;6.676;2022-07-09T00:17:22;18.30;99.90
15777;DHT22;7989;51.198;6.676;2022-07-09T00:19:50;18.30;99.90
15777;DHT22;7989;51.198;6.676;2022-07-09T00:22:17;18.20;99.90
15777;DHT22;7989;51.198;6.676;2022-07-09T00:24:43;18.30;99.90
15777;DHT22;7989;51.198;6.676;2022-07-09T00:27:10;18.20;99.90
15777;DHT22;7989;51.198;6.676;2022-07-09T00:29:37;18.20;99.90
15777;DHT22;7989;51.198;6.676;2022-07-09T00:32:05;18.10;99.90
15777;DHT22;7989;51.198;6.676;2022-07-09T00:34:33;18.10;99.90
15777;DHT22;7989;51.198;6.676;2022-07-09T00:37:00;18.10;99.90
15777;DHT22;7989;51.198;6.676;2022-07-09T00:39:27;18.10;99.90
15777;DHT22;7989;51.198;6.676;2022-07-09T00:42:02;18.00;99.90
15777;DHT22;7989;51.198;6.676;2022-07-09T00:44:29;18.00;99.90
15777;DHT22;7989;51.198;6.676;2022-07-09T00:46:56;18.00;99.90
15777;DHT22;7989;51.198;6.676;2022-07-09T00:49:24;17.90;99.90
15777;DHT22;7989;51.198;6.676;2022-07-09T00:51:53;17.90;99.90
15777;DHT22;7989;51.198;6.676;2022-07-09T00:54:20;17.90;99.90
15777;DHT22;7989;51.198;6.676;2022-07-09T00:56:47;17.90;99.90
15777;DHT22;7989;51.198;6.676;2022-07-09T00:59:15;17.80;99.90
15777;DHT22;7989;51.198;6.676;2022-07-09T01:01:42;17.80;99.90
15777;DHT22;7989;51.198;6.676;2022-07-09T01:04:09;17.80;99.90
15777;DHT22;7989;51.198;6.676;2022-07-09T01:06:37;17.80;99.90
15777;DHT22;7989;51.198;6.676;2022-07-09T01:09:05;17.70;99.90
15777;DHT22;7989;51.198;6.676;2022-07-09T01:11:32;17.70;99.90
15777;DHT22;7989;51.198;6.676;2022-07-09T01:14:00;17.70;99.90
15777;DHT22;7989;51.198;6.676;2022-07-09T01:16:31;17.70;99.90
15777;DHT22;7989;51.198;6.676;2022-07-09T01:18:58;17.70;99.90
15777;DHT22;7989;51.198;6.676;2022-07-09T01:21:26;17.60;99.90
15777;DHT22;7989;51.198;6.676;2022-07-09T01:23:53;17.70;99.90
15777;DHT22;7989;51.198;6.676;2022-07-09T01:26:20;17.70;99.90
15777;DHT22;7989;51.198;6.676;2022-07-09T01:28:48;17.60;99.90
15777;DHT22;7989;51.198;6.676;2022-07-09T01:31:15;17.60;99.90
15777;DHT22;7989;51.198;6.676;2022-07-09T01:33:42;17.60;99.90
15777;DHT22;7989;51.198;6.676;2022-07-09T01:36:10;17.60;99.90
15777;DHT22;7989;51.198;6.676;2022-07-09T01:38:38;17.60;99.90
15777;DHT22;7989;51.198;6.676;2022-07-09T01:41:05;17.60;99.90
15777;DHT22;7989;51.198;6.676;2022-07-09T01:43:32;17.60;99.90
15777;DHT22;7989;51.198;6.676;2022-07-09T01:45:59;17.60;99.90
15777;DHT22;7989;51.198;6.676;2022-07-09T01:48:26;17.50;99.90
15777;DHT22;7989;51.198;6.676;2022-07-09T01:50:54;17.50;99.90
15777;DHT22;7989;51.198;6.676;2022-07-09T01:53:21;17.50;99.90
15777;DHT22;7989;51.198;6.676;2022-07-09T01:55:49;17.60;99.90
15777;DHT22;7989;51.198;6.676;2022-07-09T01:58:16;17.60;99.90
15777;DHT22;7989;51.198;6.676;2022-07-09T02:00:44;17.60;99.90
15777;DHT22;7989;51.198;6.676;2022-07-09T02:03:11;17.60;99.90
15777;DHT22;7989;51.198;6.676;2022-07-09T02:05:38;17.60;99.90
15777;DHT22;7989;51.198;6.676;2022-07-09T02:08:05;17.70;99.90
15777;DHT22;7989;51.198;6.676;2022-07-09T02:10:32;17.60;99.90
15777;DHT22;7989;51.198;6.676;2022-07-09T02:13:00;17.70;99.90
15777;DHT22;7989;51.198;6.676;2022-07-09T02:15:27;17.60;99.90
15777;DHT22;7989;51.198;6.676;2022-07-09T02:17:54;17.60;99.90
15777;DHT22;7989;51.198;6.676;2022-07-09T02:20:21;17.60;99.90
15777;DHT22;7989;51.198;6.676;2022-07-09T02:22:48;17.60;99.90
15777;DHT22;7989;51.198;6.676;2022-07-09T02:25:15;17.60;99.90
15777;DHT22;7989;51.198;6.676;2022-07-09T02:27:42;17.60;99.90
15777;DHT22;7989;51.198;6.676;2022-07-09T02:30:11;17.60;99.90
15777;DHT22;7989;51.198;6.676;2022-07-09T02:32:38;17.50;99.90
15777;DHT22;7989;51.198;6.676;2022-07-09T02:35:06;17.40;99.90
15777;DHT22;7989;51.198;6.676;2022-07-09T02:37:33;17.40;99.90
15777;DHT22;7989;51.198;6.676;2022-07-09T02:40:00;17.40;99.90
15777;DHT22;7989;51.198;6.676;2022-07-09T02:42:27;17.40;99.90
15777;DHT22;7989;51.198;6.676;2022-07-09T02:44:54;17.40;99.90
15777;DHT22;7989;51.198;6.676;2022-07-09T02:47:22;17.40;99.90
15777;DHT22;7989;51.198;6.676;2022-07-09T02:49:49;17.30;99.90
15777;DHT22;7989;51.198;6.676;2022-07-09T02:52:16;17.30;99.90
15777;DHT22;7989;51.198;6.676;2022-07-09T02:54:43;17.20;99.90
15777;DHT22;7989;51.198;6.676;2022-07-09T02:57:10;17.20;99.90
15777;DHT22;7989;51.198;6.676;2022-07-09T02:59:38;17.20;99.90
15777;DHT22;7989;51.198;6.676;2022-07-09T03:02:05;17.20;99.90
15777;DHT22;7989;51.198;6.676;2022-07-09T03:04:33;17.10;99.90
15777;DHT22;7989;51.198;6.676;2022-07-09T03:07:00;17.10;99.90
15777;DHT22;7989;51.198;6.676;2022-07-09T03:09:27;17.10;99.90
15777;DHT22;7989;51.198;6.676;2022-07-09T03:11:54;17.00;99.90
15777;DHT22;7989;51.198;6.676;2022-07-09T03:14:21;17.00;99.90
15777;DHT22;7989;51.198;6.676;2022-07-09T03:16:48;16.90;99.90
15777;DHT22;7989;51.198;6.676;2022-07-09T03:19:15;16.90;99.90
15777;DHT22;7989;51.198;6.676;2022-07-09T03:21:43;16.90;99.90
15777;DHT22;7989;51.198;6.676;2022-07-09T03:24:10;16.90;99.90
15777;DHT22;7989;51.198;6.676;2022-07-09T03:26:37;16.90;99.90
15777;DHT22;7989;51.198;6.676;2022-07-09T03:29:04;16.90;99.90
15777;DHT22;7989;51.198;6.676;2022-07-09T03:31:32;16.90;99.90
15777;DHT22;7989;51.198;6.676;2022-07-09T03:34:00;16.80;99.90
15777;DHT22;7989;51.198;6.676;2022-07-09T03:36:27;16.80;99.90
15777;DHT22;7989;51.198;6.676;2022-07-09T03:38:55;16.80;99.90
15777;DHT22;7989;51.198;6.676;2022-07-09T03:41:22;16.80;99.90
15777;DHT22;7989;51.198;6.676;2022-07-09T03:43:49;16.80;99.90
15777;DHT22;7989;51.198;6.676;2022-07-09T03:46:16;16.80;99.90
15777;DHT22;7989;51.198;6.676;2022-07-09T03:48:42;16.80;99.90
15777;DHT22;7989;51.198;6.676;2022-07-09T03:51:10;16.80;99.90
15777;DHT22;7989;51.198;6.676;2022-07-09T03:53:36;16.80;99.90
15777;DHT22;7989;51.198;6.676;2022-07-09T03:56:06;16.80;99.90
15777;DHT22;7989;51.198;6.676;2022-07-09T03:58:33;16.80;99.90
15777;DHT22;7989;51.198;6.676;2022-07-09T04:01:01;16.80;99.90
15777;DHT22;7989;51.198;6.676;2022-07-09T04:03:28;16.80;99.90
15777;DHT22;7989;51.198;6.676;2022-07-09T04:05:55;16.80;99.90
15777;DHT22;7989;51.198;6.676;2022-07-09T04:08:22;16.80;99.90
15777;DHT22;7989;51.198;6.676;2022-07-09T04:10:48;16.80;99.90
15777;DHT22;7989;51.198;6.676;2022-07-09T04:13:17;16.90;99.90
15777;DHT22;7989;51.198;6.676;2022-07-09T04:15:44;16.90;99.90
15777;DHT22;7989;51.198;6.676;2022-07-09T04:18:11;16.90;99.90
15777;DHT22;7989;51.198;6.676;2022-07-09T04:20:38;17.00;99.90
15777;DHT22;7989;51.198;6.676;2022-07-09T04:23:05;17.00;99.90
15777;DHT22;7989;51.198;6.676;2022-07-09T04:25:32;17.00;99.90
15777;DHT22;7989;51.198;6.676;2022-07-09T04:27:59;17.00;99.90
15777;DHT22;7989;51.198;6.676;2022-07-09T04:30:27;17.00;99.90
15777;DHT22;7989;51.198;6.676;2022-07-09T04:32:54;17.00;99.90
15777;DHT22;7989;51.198;6.676;2022-07-09T04:35:21;17.10;99.90
15777;DHT22;7989;51.198;6.676;2022-07-09T04:37:48;17.10;99.90
15777;DHT22;7989;51.198;6.676;2022-07-09T04:40:15;17.10;99.90
15777;DHT22;7989;51.198;6.676;2022-07-09T04:42:42;17.20;99.90
15777;DHT22;7989;51.198;6.676;2022-07-09T04:45:09;17.20;99.90
15777;DHT22;7989;51.198;6.676;2022-07-09T04:47:38;17.20;99.90
15777;DHT22;7989;51.198;6.676;2022-07-09T04:50:05;17.30;99.90
15777;DHT22;7989;51.198;6.676;2022-07-09T04:52:32;17.30;99.90
15777;DHT22;7989;51.198;6.676;2022-07-09T04:54:59;17.50;99.90
15777;DHT22;7989;51.198;6.676;2022-07-09T04:57:25;17.50;99.90
15777;DHT22;7989;51.198;6.676;2022-07-09T04:59:52;17.50;99.90
15777;DHT22;7989;51.198;6.676;2022-07-09T05:02:19;17.60;99.90
15777;DHT22;7989;51.198;6.676;2022-07-09T05:04:48;17.70;99.90
15777;DHT22;7989;51.198;6.676;2022-07-09T05:07:14;17.60;99.90
15777;DHT22;7989;51.198;6.676;2022-07-09T05:09:41;17.60;99.90
15777;DHT22;7989;51.198;6.676;2022-07-09T05:12:09;17.80;99.90
15777;DHT22;7989;51.198;6.676;2022-07-09T05:14:36;17.90;99.90
15777;DHT22;7989;51.198;6.676;2022-07-09T05:17:04;17.90;99.90
15777;DHT22;7989;51.198;6.676;2022-07-09T05:19:31;17.90;99.90
15777;DHT22;7989;51.198;6.676;2022-07-09T05:21:59;17.90;99.90
15777;DHT22;7989;51.198;6.676;2022-07-09T05:24:27;17.90;99.90
15777;DHT22;7989;51.198;6.676;2022-07-09T05:26:53;18.00;99.90
15777;DHT22;7989;51.198;6.676;2022-07-09T05:29:21;18.10;99.90
15777;DHT22;7989;51.198;6.676;2022-07-09T05:31:48;18.00;99.90
15777;DHT22;7989;51.198;6.676;2022-07-09T05:34:15;18.00;99.90
15777;DHT22;7989;51.198;6.676;2022-07-09T05:36:42;18.10;99.90
15777;DHT22;7989;51.198;6.676;2022-07-09T05:39:11;18.20;99.90
15777;DHT22;7989;51.198;6.676;2022-07-09T05:41:37;18.30;99.90
15777;DHT22;7989;51.198;6.676;2022-07-09T05:44:04;18.30;99.90
15777;DHT22;7989;51.198;6.676;2022-07-09T05:46:31;18.40;99.90
15777;DHT22;7989;51.198;6.676;2022-07-09T05:48:58;18.40;99.90
15777;DHT22;7989;51.198;6.676;2022-07-09T05:51:25;18.40;99.90
15777;DHT22;7989;51.198;6.676;2022-07-09T05:53:52;18.50;99.90
15777;DHT22;7989;51.198;6.676;2022-07-09T05:56:20;18.50;99.90
15777;DHT22;7989;51.198;6.676;2022-07-09T05:58:47;18.60;99.90
15777;DHT22;7989;51.198;6.676;2022-07-09T06:01:14;18.70;99.90
15777;DHT22;7989;51.198;6.676;2022-07-09T06:03:41;18.80;99.90
15777;DHT22;7989;51.198;6.676;2022-07-09T06:06:08;18.80;99.90
15777;DHT22;7989;51.198;6.676;2022-07-09T06:08:35;19.00;99.90
15777;DHT22;7989;51.198;6.676;2022-07-09T06:11:02;19.00;99.90
15777;DHT22;7989;51.198;6.676;2022-07-09T06:13:31;19.10;99.90
15777;DHT22;7989;51.198;6.676;2022-07-09T06:15:57;19.20;99.90
15777;DHT22;7989;51.198;6.676;2022-07-09T06:18:24;19.40;99.90
15777;DHT22;7989;51.198;6.676;2022-07-09T06:20:51;19.40;99.90
15777;DHT22;7989;51.198;6.676;2022-07-09T06:23:18;19.60;99.90
15777;DHT22;7989;51.198;6.676;2022-07-09T06:25:46;19.70;99.90
15777;DHT22;7989;51.198;6.676;2022-07-09T06:28:13;19.80;99.90
15777;DHT22;7989;51.198;6.676;2022-07-09T06:30:41;20.00;99.90
15777;DHT22;7989;51.198;6.676;2022-07-09T06:33:09;20.10;99.90
15777;DHT22;7989;51.198;6.676;2022-07-09T06:35:36;20.00;99.90
15777;DHT22;7989;51.198;6.676;2022-07-09T06:38:03;20.50;99.90
15777;DHT22;7989;51.198;6.676;2022-07-09T06:40:30;20.80;99.90
15777;DHT22;7989;51.198;6.676;2022-07-09T06:42:57;21.00;99.90
15777;DHT22;7989;51.198;6.676;2022-07-09T06:45:24;20.80;99.90
15777;DHT22;7989;51.198;6.676;2022-07-09T06:47:52;21.20;99.90
15777;DHT22;7989;51.198;6.676;2022-07-09T06:50:19;23.50;99.90
15777;DHT22;7989;51.198;6.676;2022-07-09T06:52:46;24.50;99.90
15777;DHT22;7989;51.198;6.676;2022-07-09T06:55:13;23.90;99.90
15777;DHT22;7989;51.198;6.676;2022-07-09T06:57:40;22.70;99.90
15777;DHT22;7989;51.198;6.676;2022-07-09T07:00:08;22.30;99.90
15777;DHT22;7989;51.198;6.676;2022-07-09T07:02:35;23.00;99.90
15777;DHT22;7989;51.198;6.676;2022-07-09T07:05:03;23.10;99.90
15777;DHT22;7989;51.198;6.676;2022-07-09T07:07:30;23.20;99.90
15777;DHT22;7989;51.198;6.676;2022-07-09T07:09:57;23.10;99.90
15777;DHT22;7989;51.198;6.676;2022-07-09T07:12:24;23.10;99.90
15777;DHT22;7989;51.198;6.676;2022-07-09T07:14:51;22.80;99.90
15777;DHT22;7989;51.198;6.676;2022-07-09T07:17:18;22.40;99.90
15777;DHT22;7989;51.198;6.676;2022-07-09T07:19:45;22.10;99.90
15777;DHT22;7989;51.198;6.676;2022-07-09T07:22:13;22.10;99.90
15777;DHT22;7989;51.198;6.676;2022-07-09T07:24:40;22.90;99.90
15777;DHT22;7989;51.198;6.676;2022-07-09T07:27:07;22.70;99.90
15777;DHT22;7989;51.198;6.676;2022-07-09T07:29:34;22.60;99.90
15777;DHT22;7989;51.198;6.676;2022-07-09T07:32:01;22.50;99.90
15777;DHT22;7989;51.198;6.676;2022-07-09T07:34:27;22.40;99.90
15777;DHT22;7989;51.198;6.676;2022-07-09T07:36:54;22.50;99.90
15777;DHT22;7989;51.198;6.676;2022-07-09T07:39:23;22.60;99.90
15777;DHT22;7989;51.198;6.676;2022-07-09T07:41:52;22.60;99.90
15777;DHT22;7989;51.198;6.676;2022-07-09T07:44:19;22.50;99.90
15777;DHT22;7989;51.198;6.676;2022-07-09T07:46:46;22.50;99.90
15777;DHT22;7989;51.198;6.676;2022-07-09T07:49:13;22.70;99.90
15777;DHT22;7989;51.198;6.676;2022-07-09T07:51:40;23.10;99.90
15777;DHT22;7989;51.198;6.676;2022-07-09T07:54:08;23.50;99.90
15777;DHT22;7989;51.198;6.676;2022-07-09T07:56:36;23.40;99.90
15777;DHT22;7989;51.198;6.676;2022-07-09T07:59:05;23.40;99.90
15777;DHT22;7989;51.198;6.676;2022-07-09T08:01:32;23.20;99.90
15777;DHT22;7989;51.198;6.676;2022-07-09T08:03:59;23.30;99.90
15777;DHT22;7989;51.198;6.676;2022-07-09T08:06:26;23.80;99.90
15777;DHT22;7989;51.198;6.676;2022-07-09T08:08:53;24.70;99.90
15777;DHT22;7989;51.198;6.676;2022-07-09T08:11:19;25.00;99.90
15777;DHT22;7989;51.198;6.676;2022-07-09T08:13:48;25.40;99.90
15777;DHT22;7989;51.198;6.676;2022-07-09T08:16:15;27.00;99.90
15777;DHT22;7989;51.198;6.676;2022-07-09T08:18:42;28.40;99.90
15777;DHT22;7989;51.198;6.676;2022-07-09T08:21:08;28.00;99.90
15777;DHT22;7989;51.198;6.676;2022-07-09T08:23:35;26.70;99.90
15777;DHT22;7989;51.198;6.676;2022-07-09T08:26:17;28.40;99.90
15777;DHT22;7989;51.198;6.676;2022-07-09T08:28:45;31.90;99.90
15777;DHT22;7989;51.198;6.676;2022-07-09T08:31:13;30.70;99.90
15777;DHT22;7989;51.198;6.676;2022-07-09T08:33:40;30.30;99.90
15777;DHT22;7989;51.198;6.676;2022-07-09T08:36:07;31.30;99.90
15777;DHT22;7989;51.198;6.676;2022-07-09T08:38:34;29.30;99.90
15777;DHT22;7989;51.198;6.676;2022-07-09T08:41:03;27.90;99.90
15777;DHT22;7989;51.198;6.676;2022-07-09T08:43:32;26.70;99.90
15777;DHT22;7989;51.198;6.676;2022-07-09T08:45:59;27.50;99.90
15777;DHT22;7989;51.198;6.676;2022-07-09T08:48:27;31.00;99.90
15777;DHT22;7989;51.198;6.676;2022-07-09T08:50:55;33.00;99.90
15777;DHT22;7989;51.198;6.676;2022-07-09T08:53:24;30.30;99.90
15777;DHT22;7989;51.198;6.676;2022-07-09T08:55:53;30.60;99.90
15777;DHT22;7989;51.198;6.676;2022-07-09T08:58:21;30.80;99.90
15777;DHT22;7989;51.198;6.676;2022-07-09T09:00:48;30.00;99.90
15777;DHT22;7989;51.198;6.676;2022-07-09T09:03:16;32.10;99.90
15777;DHT22;7989;51.198;6.676;2022-07-09T09:05:45;33.60;99.90
15777;DHT22;7989;51.198;6.676;2022-07-09T09:08:25;34.30;99.00
15777;DHT22;7989;51.198;6.676;2022-07-09T09:10:52;35.30;95.90
15777;DHT22;7989;51.198;6.676;2022-07-09T09:13:19;31.90;96.60
15777;DHT22;7989;51.198;6.676;2022-07-09T09:15:46;29.60;99.50
15777;DHT22;7989;51.198;6.676;2022-07-09T09:18:13;28.30;99.90
15777;DHT22;7989;51.198;6.676;2022-07-09T09:20:45;27.20;99.90
15777;DHT22;7989;51.198;6.676;2022-07-09T09:23:16;27.30;99.90
15777;DHT22;7989;51.198;6.676;2022-07-09T09:25:43;28.90;99.90
15777;DHT22;7989;51.198;6.676;2022-07-09T09:28:11;29.00;99.90
15777;DHT22;7989;51.198;6.676;2022-07-09T09:30:41;27.70;99.90
15777;DHT22;7989;51.198;6.676;2022-07-09T09:33:09;27.00;99.90
15777;DHT22;7989;51.198;6.676;2022-07-09T09:35:42;26.50;99.90
15777;DHT22;7989;51.198;6.676;2022-07-09T09:38:10;26.40;99.90
15777;DHT22;7989;51.198;6.676;2022-07-09T09:40:37;27.00;99.90
15777;DHT22;7989;51.198;6.676;2022-07-09T09:43:06;27.70;99.90
15777;DHT22;7989;51.198;6.676;2022-07-09T09:45:34;28.80;99.90
15777;DHT22;7989;51.198;6.676;2022-07-09T09:48:03;28.70;99.90
15777;DHT22;7989;51.198;6.676;2022-07-09T09:50:32;28.30;99.90
15777;DHT22;7989;51.198;6.676;2022-07-09T09:53:01;27.80;99.90
15777;DHT22;7989;51.198;6.676;2022-07-09T09:55:30;27.90;99.90
15777;DHT22;7989;51.198;6.676;2022-07-09T09:57:58;28.40;99.90
15777;DHT22;7989;51.198;6.676;2022-07-09T10:00:25;30.50;99.90
15777;DHT22;7989;51.198;6.676;2022-07-09T10:02:52;29.40;99.90
15777;DHT22;7989;51.198;6.676;2022-07-09T10:05:19;29.20;99.90
15777;DHT22;7989;51.198;6.676;2022-07-09T10:07:46;28.90;99.90
15777;DHT22;7989;51.198;6.676;2022-07-09T10:10:18;28.70;99.90
15777;DHT22;7989;51.198;6.676;2022-07-09T10:12:46;28.60;99.90
15777;DHT22;7989;51.198;6.676;2022-07-09T10:15:20;28.30;99.90
15777;DHT22;7989;51.198;6.676;2022-07-09T10:17:48;28.10;99.90
15777;DHT22;7989;51.198;6.676;2022-07-09T10:20:15;27.90;99.90
15777;DHT22;7989;51.198;6.676;2022-07-09T10:22:43;27.70;99.90
15777;DHT22;7989;51.198;6.676;2022-07-09T10:25:13;27.30;99.90
15777;DHT22;7989;51.198;6.676;2022-07-09T10:27:50;26.80;99.90
15777;DHT22;7989;51.198;6.676;2022-07-09T10:30:24;26.70;99.90
15777;DHT22;7989;51.198;6.676;2022-07-09T10:33:05;26.50;99.90
15777;DHT22;7989;51.198;6.676;2022-07-09T10:35:40;26.40;99.90
15777;DHT22;7989;51.198;6.676;2022-07-09T10:38:08;26.00;99.90
15777;DHT22;7989;51.198;6.676;2022-07-09T10:40:39;25.90;99.90
15777;DHT22;7989;51.198;6.676;2022-07-09T10:43:08;25.70;99.90
15777;DHT22;7989;51.198;6.676;2022-07-09T10:45:39;25.80;99.90
15777;DHT22;7989;51.198;6.676;2022-07-09T10:48:07;25.80;99.90
15777;DHT22;7989;51.198;6.676;2022-07-09T10:50:37;25.40;99.90
15777;DHT22;7989;51.198;6.676;2022-07-09T10:53:05;25.60;99.90
15777;DHT22;7989;51.198;6.676;2022-07-09T10:55:32;26.00;99.90
15777;DHT22;7989;51.198;6.676;2022-07-09T10:57:59;25.80;99.90
15777;DHT22;7989;51.198;6.676;2022-07-09T11:00:30;25.80;99.90
15777;DHT22;7989;51.198;6.676;2022-07-09T11:02:58;25.90;99.90
15777;DHT22;7989;51.198;6.676;2022-07-09T11:05:28;26.40;99.90
15777;DHT22;7989;51.198;6.676;2022-07-09T11:07:57;27.00;99.90
15777;DHT22;7989;51.198;6.676;2022-07-09T11:10:24;26.80;99.90
15777;DHT22;7989;51.198;6.676;2022-07-09T11:12:53;26.50;99.90
15777;DHT22;7989;51.198;6.676;2022-07-09T11:15:21;26.30;99.90
15777;DHT22;7989;51.198;6.676;2022-07-09T11:17:59;26.10;99.90
15777;DHT22;7989;51.198;6.676;2022-07-09T11:20:27;26.10;99.90
15777;DHT22;7989;51.198;6.676;2022-07-09T11:22:54;25.90;99.90
15777;DHT22;7989;51.198;6.676;2022-07-09T11:25:23;25.60;99.90
15777;DHT22;7989;51.198;6.676;2022-07-09T11:27:51;25.60;99.90
15777;DHT22;7989;51.198;6.676;2022-07-09T11:30:18;25.70;99.90
15777;DHT22;7989;51.198;6.676;2022-07-09T11:32:45;25.80;99.90
15777;DHT22;7989;51.198;6.676;2022-07-09T11:35:23;25.70;99.90
15777;DHT22;7989;51.198;6.676;2022-07-09T11:37:51;25.80;99.90
15777;DHT22;7989;51.198;6.676;2022-07-09T11:40:18;25.80;99.90
15777;DHT22;7989;51.198;6.676;2022-07-09T11:42:46;26.00;99.90
15777;DHT22;7989;51.198;6.676;2022-07-09T11:45:14;26.30;99.90
15777;DHT22;7989;51.198;6.676;2022-07-09T11:47:40;26.60;99.90
15777;DHT22;7989;51.198;6.676;2022-07-09T11:50:09;26.90;99.90
15777;DHT22;7989;51.198;6.676;2022-07-09T11:52:43;26.90;99.90
15777;DHT22;7989;51.198;6.676;2022-07-09T11:55:12;26.70;99.90
15777;DHT22;7989;51.198;6.676;2022-07-09T11:57:50;26.40;99.90
15777;DHT22;7989;51.198;6.676;2022-07-09T12:00:21;26.40;99.90
15777;DHT22;7989;51.198;6.676;2022-07-09T12:02:48;26.30;99.90
15777;DHT22;7989;51.198;6.676;2022-07-09T12:05:24;26.50;99.90
15777;DHT22;7989;51.198;6.676;2022-07-09T12:07:53;26.80;99.90
15777;DHT22;7989;51.198;6.676;2022-07-09T12:10:26;27.30;99.90
15777;DHT22;7989;51.198;6.676;2022-07-09T12:12:53;27.30;99.90
15777;DHT22;7989;51.198;6.676;2022-07-09T12:15:20;27.40;99.90
15777;DHT22;7989;51.198;6.676;2022-07-09T12:17:51;27.50;99.90
15777;DHT22;7989;51.198;6.676;2022-07-09T12:20:19;27.00;99.90
15777;DHT22;7989;51.198;6.676;2022-07-09T12:22:46;27.20;99.90
15777;DHT22;7989;51.198;6.676;2022-07-09T12:25:15;27.90;99.90
15777;DHT22;7989;51.198;6.676;2022-07-09T12:27:42;27.90;99.90
15777;DHT22;7989;51.198;6.676;2022-07-09T12:30:10;27.50;99.90
15777;DHT22;7989;51.198;6.676;2022-07-09T12:32:37;27.60;99.90
15777;DHT22;7989;51.198;6.676;2022-07-09T12:35:05;27.90;99.90
15777;DHT22;7989;51.198;6.676;2022-07-09T12:37:32;27.40;99.90
15777;DHT22;7989;51.198;6.676;2022-07-09T12:39:59;27.00;99.90
15777;DHT22;7989;51.198;6.676;2022-07-09T12:42:27;26.50;99.90
15777;DHT22;7989;51.198;6.676;2022-07-09T12:44:54;26.20;99.90
15777;DHT22;7989;51.198;6.676;2022-07-09T12:47:21;26.20;99.90
15777;DHT22;7989;51.198;6.676;2022-07-09T12:49:48;26.00;99.90
15777;DHT22;7989;51.198;6.676;2022-07-09T12:52:15;26.10;99.90
15777;DHT22;7989;51.198;6.676;2022-07-09T12:54:42;26.00;99.90
15777;DHT22;7989;51.198;6.676;2022-07-09T12:57:09;25.90;99.90
15777;DHT22;7989;51.198;6.676;2022-07-09T12:59:38;25.60;99.90
15777;DHT22;7989;51.198;6.676;2022-07-09T13:02:05;25.40;99.90
15777;DHT22;7989;51.198;6.676;2022-07-09T13:04:32;25.20;99.90
15777;DHT22;7989;51.198;6.676;2022-07-09T13:07:00;25.10;99.90
15777;DHT22;7989;51.198;6.676;2022-07-09T13:09:27;25.00;99.90
15777;DHT22;7989;51.198;6.676;2022-07-09T13:11:54;25.00;99.90
15777;DHT22;7989;51.198;6.676;2022-07-09T13:14:21;25.20;99.90
15777;DHT22;7989;51.198;6.676;2022-07-09T13:16:49;25.20;99.90
15777;DHT22;7989;51.198;6.676;2022-07-09T13:19:16;25.00;99.90
15777;DHT22;7989;51.198;6.676;2022-07-09T13:21:43;24.90;99.90
15777;DHT22;7989;51.198;6.676;2022-07-09T13:24:10;24.90;99.90
15777;DHT22;7989;51.198;6.676;2022-07-09T13:26:37;25.10;99.90
15777;DHT22;7989;51.198;6.676;2022-07-09T13:29:04;25.40;99.90
15777;DHT22;7989;51.198;6.676;2022-07-09T13:31:31;25.80;99.90
15777;DHT22;7989;51.198;6.676;2022-07-09T13:33:59;25.80;99.90
15777;DHT22;7989;51.198;6.676;2022-07-09T13:36:26;25.50;99.90
15777;DHT22;7989;51.198;6.676;2022-07-09T13:38:53;25.50;99.90
15777;DHT22;7989;51.198;6.676;2022-07-09T13:41:20;25.70;99.90
15777;DHT22;7989;51.198;6.676;2022-07-09T13:43:47;26.10;99.90
15777;DHT22;7989;51.198;6.676;2022-07-09T13:46:14;26.70;99.90
15777;DHT22;7989;51.198;6.676;2022-07-09T13:48:41;26.80;99.90
15777;DHT22;7989;51.198;6.676;2022-07-09T13:51:09;26.40;99.90
15777;DHT22;7989;51.198;6.676;2022-07-09T13:53:36;26.40;99.90
15777;DHT22;7989;51.198;6.676;2022-07-09T13:56:03;26.40;99.90
15777;DHT22;7989;51.198;6.676;2022-07-09T13:58:31;26.10;99.90
15777;DHT22;7989;51.198;6.676;2022-07-09T14:00:57;26.00;99.90
15777;DHT22;7989;51.198;6.676;2022-07-09T14:03:24;25.80;99.90
15777;DHT22;7989;51.198;6.676;2022-07-09T14:05:51;25.90;99.90
15777;DHT22;7989;51.198;6.676;2022-07-09T14:08:19;26.00;99.90
15777;DHT22;7989;51.198;6.676;2022-07-09T14:10:48;26.00;99.90
15777;DHT22;7989;51.198;6.676;2022-07-09T14:13:16;25.90;99.90
15777;DHT22;7989;51.198;6.676;2022-07-09T14:15:43;25.80;99.90
15777;DHT22;7989;51.198;6.676;2022-07-09T14:18:10;25.70;99.90
15777;DHT22;7989;51.198;6.676;2022-07-09T14:20:37;25.60;99.90
15777;DHT22;7989;51.198;6.676;2022-07-09T14:23:04;25.50;99.90
15777;DHT22;7989;51.198;6.676;2022-07-09T14:25:32;25.20;99.90
15777;DHT22;7989;51.198;6.676;2022-07-09T14:27:59;25.00;99.90
15777;DHT22;7989;51.198;6.676;2022-07-09T14:30:26;25.10;99.90
15777;DHT22;7989;51.198;6.676;2022-07-09T14:32:53;25.40;99.90
15777;DHT22;7989;51.198;6.676;2022-07-09T14:35:20;25.50;99.90
15777;DHT22;7989;51.198;6.676;2022-07-09T14:37:47;25.60;99.90
15777;DHT22;7989;51.198;6.676;2022-07-09T14:40:14;25.70;99.90
15777;DHT22;7989;51.198;6.676;2022-07-09T14:42:42;25.80;99.90
15777;DHT22;7989;51.198;6.676;2022-07-09T14:45:10;25.90;99.90
15777;DHT22;7989;51.198;6.676;2022-07-09T14:47:37;25.80;99.90
15777;DHT22;7989;51.198;6.676;2022-07-09T14:50:04;25.60;99.90
15777;DHT22;7989;51.198;6.676;2022-07-09T14:52:31;25.10;99.90
15777;DHT22;7989;51.198;6.676;2022-07-09T14:54:58;24.90;99.90
15777;DHT22;7989;51.198;6.676;2022-07-09T14:57:25;25.10;99.90
15777;DHT22;7989;51.198;6.676;2022-07-09T14:59:53;25.10;99.90
15777;DHT22;7989;51.198;6.676;2022-07-09T15:02:20;25.00;99.90
15777;DHT22;7989;51.198;6.676;2022-07-09T15:04:47;25.20;99.90
15777;DHT22;7989;51.198;6.676;2022-07-09T15:07:14;25.30;99.90
15777;DHT22;7989;51.198;6.676;2022-07-09T15:09:41;25.20;99.90
15777;DHT22;7989;51.198;6.676;2022-07-09T15:12:08;25.10;99.90
15777;DHT22;7989;51.198;6.676;2022-07-09T15:14:35;24.90;99.90
15777;DHT22;7989;51.198;6.676;2022-07-09T15:17:04;25.00;99.90
15777;DHT22;7989;51.198;6.676;2022-07-09T15:19:31;25.00;99.90
15777;DHT22;7989;51.198;6.676;2022-07-09T15:21:58;24.90;99.90
15777;DHT22;7989;51.198;6.676;2022-07-09T15:24:24;25.00;99.90
15777;DHT22;7989;51.198;6.676;2022-07-09T15:26:52;25.20;99.90
15777;DHT22;7989;51.198;6.676;2022-07-09T15:29:19;25.40;99.90
15777;DHT22;7989;51.198;6.676;2022-07-09T15:31:46;25.40;99.90
15777;DHT22;7989;51.198;6.676;2022-07-09T15:34:14;25.40;99.90
15777;DHT22;7989;51.198;6.676;2022-07-09T15:36:41;25.30;99.90
15777;DHT22;7989;51.198;6.676;2022-07-09T15:39:08;25.10;99.90
15777;DHT22;7989;51.198;6.676;2022-07-09T15:41:35;25.00;99.90
15777;DHT22;7989;51.198;6.676;2022-07-09T15:44:02;24.80;99.90
15777;DHT22;7989;51.198;6.676;2022-07-09T15:46:30;24.90;99.90